Time;durP1;ratioP1;P1;durP2;ratioP2;P2;SDS_P1;SDS_P2;PMS_P1;PMS_P2;Temp;Humidity;BMP_temperature;BMP_pressure;BME280_temperature;BME280_humidity;BME280_pressure;Samples;Min_cycle;Max_cycle;Signal;HPM_P1;HPM_P2
2023/03/11 00:01:23;;;;;;;;;6.75;6.75;;;;;;;;5042722;28;45559;-50
2023/03/11 00:03:48;;;;;;;;;7.00;7.00;;;;;;;;5067661;27;46020;-47
2023/03/11 00:06:13;;;;;;;;;10.00;9.00;;;;;;;;5063680;27;45505;-52
2023/03/11 00:08:40;;;;;;;;;9.75;9.75;;;;;;;;5056990;27;45530;-50
2023/03/11 00:11:05;;;;;;;;;9.50;9.50;;;;;;;;5056286;28;45548;-48
2023/03/11 00:13:30;;;;;;;;;8.50;8.25;;;;;;;;5043429;27;46708;-51
2023/03/11 00:15:55;;;;;;;;;8.00;7.25;;;;;;;;5064173;27;45589;-49
2023/03/11 00:18:25;;;;;;;;;6.50;5.00;;;;;;;;5061101;28;45534;-49
2023/03/11 00:20:51;;;;;;;;;6.75;6.75;;;;;;;;5065384;28;45435;-50
2023/03/11 00:23:16;;;;;;;;;9.50;9.50;;;;;;;;5070334;27;45809;-49
2023/03/11 00:25:43;;;;;;;;;13.00;11.75;;;;;;;;5054178;28;45489;-52
2023/03/11 00:28:09;;;;;;;;;12.00;12.00;;;;;;;;5067735;27;45545;-49
2023/03/11 00:30:35;;;;;;;;;16.50;13.25;;;;;;;;5053456;28;45530;-47
2023/03/11 00:33:00;;;;;;;;;16.25;16.25;;;;;;;;5046891;27;46275;-48
2023/03/11 00:35:27;;;;;;;;;20.00;20.00;;;;;;;;5068478;27;45495;-49
2023/03/11 00:37:54;;;;;;;;;15.00;14.25;;;;;;;;5058059;28;45562;-47
2023/03/11 00:40:19;;;;;;;;;17.25;13.25;;;;;;;;5069487;27;45495;-47
2023/03/11 00:42:45;;;;;;;;;15.75;14.75;;;;;;;;5054718;27;45852;-49
2023/03/11 00:45:11;;;;;;;;;17.25;17.25;;;;;;;;5072689;27;45576;-51
2023/03/11 00:47:36;;;;;;;;;14.50;14.50;;;;;;;;5042757;28;45525;-49
2023/03/11 00:50:01;;;;;;;;;15.00;15.00;;;;;;;;5071767;27;45394;-50
2023/03/11 00:52:27;;;;;;;;;11.00;11.00;;;;;;;;5058644;28;45493;-48
2023/03/11 00:54:53;;;;;;;;;13.25;11.00;;;;;;;;5065077;27;45506;-50
2023/03/11 00:57:18;;;;;;;;;9.75;8.75;;;;;;;;5067135;28;45465;-50
2023/03/11 00:59:43;;;;;;;;;10.75;10.25;;;;;;;;5059699;27;45583;-47
2023/03/11 01:02:08;;;;;;;;;7.75;7.75;;;;;;;;5041102;28;46335;-50
2023/03/11 01:04:33;;;;;;;;;8.75;7.75;;;;;;;;5072703;28;45488;-50
2023/03/11 01:06:59;;;;;;;;;7.00;7.00;;;;;;;;5052609;27;45484;-51
2023/03/11 01:09:24;;;;;;;;;7.75;6.00;;;;;;;;5056211;28;45471;-48
2023/03/11 01:11:49;;;;;;;;;7.75;6.75;;;;;;;;5031864;28;45465;-51
2023/03/11 01:14:14;;;;;;;;;9.00;8.00;;;;;;;;5050176;28;45616;-51
2023/03/11 01:16:39;;;;;;;;;7.50;7.50;;;;;;;;5057312;28;45480;-51
2023/03/11 01:19:05;;;;;;;;;7.75;7.75;;;;;;;;5072758;28;45601;-49
2023/03/11 01:21:30;;;;;;;;;7.00;7.00;;;;;;;;5056206;28;45444;-49
2023/03/11 01:23:56;;;;;;;;;7.00;7.00;;;;;;;;5058976;28;45652;-50
2023/03/11 01:26:21;;;;;;;;;6.75;5.00;;;;;;;;5057827;28;45506;-48
2023/03/11 01:28:46;;;;;;;;;4.50;4.00;;;;;;;;5065569;28;45498;-48
2023/03/11 01:31:11;;;;;;;;;4.00;4.00;;;;;;;;5065431;28;45934;-50
2023/03/11 01:33:37;;;;;;;;;3.75;3.50;;;;;;;;5053618;28;45450;-50
2023/03/11 01:36:02;;;;;;;;;3.00;3.00;;;;;;;;5049223;28;45526;-53
2023/03/11 01:38:27;;;;;;;;;2.50;2.50;;;;;;;;5050896;28;45565;-51
2023/03/11 01:40:53;;;;;;;;;2.00;2.00;;;;;;;;5065206;27;45537;-52
2023/03/11 01:43:50;;;;;;;;;3.00;3.00;;;;;;;;5051230;28;45533;-49
2023/03/11 01:46:21;;;;;;;;;1.00;1.00;;;;;;;;5003620;28;45487;-50
2023/03/11 01:48:52;;;;;;;;;3.50;2.00;;;;;;;;5066458;27;45442;-50
2023/03/11 01:51:38;;;;;;;;;3.00;3.00;;;;;;;;5056049;28;46215;-49
2023/03/11 01:54:05;;;;;;;;;1.75;1.75;;;;;;;;5064164;28;45520;-52
2023/03/11 01:56:31;;;;;;;;;2.00;2.00;;;;;;;;5033576;28;45532;-53
2023/03/11 01:58:57;;;;;;;;;1.00;1.00;;;;;;;;5061765;27;45641;-51
2023/03/11 02:01:23;;;;;;;;;3.25;3.00;;;;;;;;5058298;27;46043;-51
2023/03/11 02:03:48;;;;;;;;;2.50;2.50;;;;;;;;5056464;28;45579;-48
2023/03/11 02:06:15;;;;;;;;;2.00;2.00;;;;;;;;5039513;28;45482;-53
2023/03/11 02:08:41;;;;;;;;;4.75;4.00;;;;;;;;5047998;28;45680;-52
2023/03/11 02:11:08;;;;;;;;;3.00;2.00;;;;;;;;5044569;28;45560;-48
2023/03/11 02:13:34;;;;;;;;;3.00;3.00;;;;;;;;5048511;28;45564;-48
2023/03/11 02:16:00;;;;;;;;;4.00;4.00;;;;;;;;5067912;27;45893;-51
2023/03/11 02:18:25;;;;;;;;;4.50;4.00;;;;;;;;5070566;27;45733;-51
2023/03/11 02:21:08;;;;;;;;;2.00;2.00;;;;;;;;5068253;27;46231;-53
2023/03/11 02:23:52;;;;;;;;;3.25;2.00;;;;;;;;5038003;28;45811;-49
2023/03/11 02:26:24;;;;;;;;;2.00;2.00;;;;;;;;5054847;28;45487;-50
2023/03/11 02:28:51;;;;;;;;;2.25;2.25;;;;;;;;5061284;27;45562;-52
2023/03/11 02:31:16;;;;;;;;;3.75;2.75;;;;;;;;5069783;27;46152;-52
2023/03/11 02:33:44;;;;;;;;;2.75;2.75;;;;;;;;5040477;28;45951;-52
2023/03/11 02:36:28;;;;;;;;;3.00;3.00;;;;;;;;5065726;27;45477;-51
2023/03/11 02:38:53;;;;;;;;;3.50;3.50;;;;;;;;5034683;28;45710;-50
2023/03/11 02:41:18;;;;;;;;;3.00;3.00;;;;;;;;5057539;28;45561;-50
2023/03/11 02:43:45;;;;;;;;;3.25;3.25;;;;;;;;5064739;27;45508;-48
2023/03/11 02:46:11;;;;;;;;;5.50;5.50;;;;;;;;5064868;27;45438;-52
2023/03/11 02:48:37;;;;;;;;;4.50;4.50;;;;;;;;5059014;28;45533;-50
2023/03/11 02:51:02;;;;;;;;;5.00;5.00;;;;;;;;5067219;27;45612;-49
2023/03/11 02:53:30;;;;;;;;;2.50;2.50;;;;;;;;5068275;28;45525;-52
2023/03/11 02:55:55;;;;;;;;;3.50;3.50;;;;;;;;5065767;27;45580;-50
2023/03/11 02:58:20;;;;;;;;;2.50;2.50;;;;;;;;5057961;28;45623;-50
2023/03/11 03:00:46;;;;;;;;;3.50;3.50;;;;;;;;5045664;28;46462;-51
2023/03/11 03:03:11;;;;;;;;;7.00;6.75;;;;;;;;5071375;27;45564;-56
2023/03/11 03:05:36;;;;;;;;;4.00;4.00;;;;;;;;5056951;28;45348;-49
2023/03/11 03:08:01;;;;;;;;;6.25;4.00;;;;;;;;5061133;28;45530;-47
2023/03/11 03:10:27;;;;;;;;;4.00;4.00;;;;;;;;5057143;28;46106;-47
2023/03/11 03:12:52;;;;;;;;;4.00;2.50;;;;;;;;5063010;27;45547;-48
2023/03/11 03:15:17;;;;;;;;;6.50;4.00;;;;;;;;5045668;27;45534;-49
2023/03/11 03:17:42;;;;;;;;;3.00;3.00;;;;;;;;5069591;27;45431;-49
2023/03/11 03:20:10;;;;;;;;;3.00;3.00;;;;;;;;5072346;27;45530;-50
2023/03/11 03:22:36;;;;;;;;;9.25;6.75;;;;;;;;5068971;27;45555;-51
2023/03/11 03:25:01;;;;;;;;;6.50;4.00;;;;;;;;5049169;27;45527;-49
2023/03/11 03:27:26;;;;;;;;;3.50;2.75;;;;;;;;5064814;27;45415;-49
2023/03/11 03:29:51;;;;;;;;;5.00;4.00;;;;;;;;5058303;27;45597;-51
2023/03/11 03:32:17;;;;;;;;;3.50;3.50;;;;;;;;5043441;28;45632;-48
2023/03/11 03:34:42;;;;;;;;;5.00;5.00;;;;;;;;5066398;27;45726;-52
2023/03/11 03:37:07;;;;;;;;;4.00;4.00;;;;;;;;5043728;28;45643;-48
2023/03/11 03:39:32;;;;;;;;;8.00;6.75;;;;;;;;5065121;28;46474;-49
2023/03/11 03:41:58;;;;;;;;;4.00;4.00;;;;;;;;5067531;28;45486;-52
2023/03/11 03:44:23;;;;;;;;;7.00;5.00;;;;;;;;5062454;27;45664;-50
2023/03/11 03:46:48;;;;;;;;;7.00;6.00;;;;;;;;5069821;27;45578;-49
2023/03/11 03:49:13;;;;;;;;;7.25;6.00;;;;;;;;5055398;28;46546;-51
2023/03/11 03:51:39;;;;;;;;;6.75;6.75;;;;;;;;5071581;27;45407;-50
2023/03/11 03:54:04;;;;;;;;;8.50;7.50;;;;;;;;5058315;27;45533;-51
2023/03/11 03:56:29;;;;;;;;;4.50;4.50;;;;;;;;5071600;27;45718;-50
2023/03/11 03:58:54;;;;;;;;;7.00;7.00;;;;;;;;5058269;28;46292;-49
2023/03/11 04:01:19;;;;;;;;;8.50;8.50;;;;;;;;5070284;27;45532;-50
2023/03/11 04:03:45;;;;;;;;;6.50;6.50;;;;;;;;5057823;27;45471;-50
2023/03/11 04:06:14;;;;;;;;;8.00;6.25;;;;;;;;5054017;28;45761;-52
2023/03/11 04:08:40;;;;;;;;;6.25;6.25;;;;;;;;5056391;27;46104;-52
2023/03/11 04:11:05;;;;;;;;;7.00;7.00;;;;;;;;5051462;28;45462;-52
2023/03/11 04:13:30;;;;;;;;;8.00;8.00;;;;;;;;5053793;28;45519;-49
2023/03/11 04:15:55;;;;;;;;;6.50;6.50;;;;;;;;5044784;28;45591;-50
2023/03/11 04:18:21;;;;;;;;;8.00;8.00;;;;;;;;5051697;27;46194;-50
2023/03/11 04:20:47;;;;;;;;;8.75;8.75;;;;;;;;5053941;27;45576;-49
2023/03/11 04:23:12;;;;;;;;;8.00;8.00;;;;;;;;5056328;28;45565;-49
2023/03/11 04:25:37;;;;;;;;;7.25;7.25;;;;;;;;5052889;28;45455;-51
2023/03/11 04:28:02;;;;;;;;;8.75;7.50;;;;;;;;5053858;28;46995;-48
2023/03/11 04:30:27;;;;;;;;;6.75;6.00;;;;;;;;5061077;27;45528;-50
2023/03/11 04:32:53;;;;;;;;;7.75;7.00;;;;;;;;5069125;27;45546;-48
2023/03/11 04:35:18;;;;;;;;;7.50;7.50;;;;;;;;5066344;27;45495;-52
2023/03/11 04:37:43;;;;;;;;;9.50;8.00;;;;;;;;5061464;28;46699;-47
2023/03/11 04:40:09;;;;;;;;;7.00;6.75;;;;;;;;5060521;27;45680;-52
2023/03/11 04:42:35;;;;;;;;;8.50;8.50;;;;;;;;5067944;28;45510;-53
2023/03/11 04:45:00;;;;;;;;;9.25;7.75;;;;;;;;5064434;28;45485;-51
2023/03/11 04:47:25;;;;;;;;;9.25;7.00;;;;;;;;5066185;28;45608;-51
2023/03/11 04:49:50;;;;;;;;;7.75;7.75;;;;;;;;5063747;27;45553;-51
2023/03/11 04:52:15;;;;;;;;;12.00;12.00;;;;;;;;5068845;27;45460;-50
2023/03/11 04:54:41;;;;;;;;;12.25;12.25;;;;;;;;5061128;27;45485;-49
2023/03/11 04:57:06;;;;;;;;;8.75;8.75;;;;;;;;5051553;27;46451;-48
2023/03/11 04:59:31;;;;;;;;;13.00;8.75;;;;;;;;5062427;27;45588;-53
2023/03/11 05:01:56;;;;;;;;;11.50;10.50;;;;;;;;5065173;27;45618;-49
2023/03/11 05:04:22;;;;;;;;;10.75;10.75;;;;;;;;5042619;28;45634;-52
2023/03/11 05:06:49;;;;;;;;;12.00;9.75;;;;;;;;5066017;28;45531;-49
2023/03/11 05:09:15;;;;;;;;;14.00;11.75;;;;;;;;5052226;27;45506;-53
2023/03/11 05:11:40;;;;;;;;;12.75;9.00;;;;;;;;5070353;27;45558;-47
2023/03/11 05:14:05;;;;;;;;;13.75;13.25;;;;;;;;5052511;28;45583;-50
2023/03/11 05:16:30;;;;;;;;;11.00;10.50;;;;;;;;5055237;28;46373;-49
2023/03/11 05:18:55;;;;;;;;;11.25;11.25;;;;;;;;5063392;28;45513;-50
2023/03/11 05:21:21;;;;;;;;;11.75;11.25;;;;;;;;5049961;27;45624;-50
2023/03/11 05:23:46;;;;;;;;;14.00;13.25;;;;;;;;5057491;28;45625;-50
2023/03/11 05:26:11;;;;;;;;;12.00;9.25;;;;;;;;5037024;28;45487;-52
2023/03/11 05:28:36;;;;;;;;;11.50;11.50;;;;;;;;5036060;28;45581;-52
2023/03/11 05:31:01;;;;;;;;;12.75;12.25;;;;;;;;5056516;28;45600;-50
2023/03/11 05:33:33;;;;;;;;;12.75;10.25;;;;;;;;5047648;28;45640;-47
2023/03/11 05:36:08;;;;;;;;;9.00;8.00;;;;;;;;5052130;27;45624;-50
2023/03/11 05:38:34;;;;;;;;;11.50;10.50;;;;;;;;5059864;27;45653;-52
2023/03/11 05:40:59;;;;;;;;;8.25;8.25;;;;;;;;5068637;28;45571;-52
2023/03/11 05:43:24;;;;;;;;;9.75;8.25;;;;;;;;5066849;27;45678;-47
2023/03/11 05:45:49;;;;;;;;;9.00;9.00;;;;;;;;5067023;27;45682;-51
2023/03/11 05:48:15;;;;;;;;;12.75;12.25;;;;;;;;5062420;28;45531;-50
2023/03/11 05:50:40;;;;;;;;;8.25;8.25;;;;;;;;5056933;27;45501;-47
2023/03/11 05:53:05;;;;;;;;;9.00;9.00;;;;;;;;5065858;28;45620;-49
2023/03/11 05:55:30;;;;;;;;;12.25;9.75;;;;;;;;5053101;27;45434;-48
2023/03/11 05:57:55;;;;;;;;;11.75;10.75;;;;;;;;5067466;27;45403;-49
2023/03/11 06:00:21;;;;;;;;;12.00;11.50;;;;;;;;5060088;27;45659;-47
2023/03/11 06:02:46;;;;;;;;;12.25;12.00;;;;;;;;5067788;28;45578;-49
2023/03/11 06:05:11;;;;;;;;;15.50;12.75;;;;;;;;5035684;28;47000;-50
2023/03/11 06:07:36;;;;;;;;;7.75;7.75;;;;;;;;5057038;28;45701;-47
2023/03/11 06:10:03;;;;;;;;;11.50;8.75;;;;;;;;5055408;28;45439;-47
2023/03/11 06:12:28;;;;;;;;;12.25;11.25;;;;;;;;5070727;28;45637;-49
2023/03/11 06:14:53;;;;;;;;;10.25;10.25;;;;;;;;5052573;27;46251;-51
2023/03/11 06:17:19;;;;;;;;;12.50;9.00;;;;;;;;5071838;27;45639;-47
2023/03/11 06:19:44;;;;;;;;;8.25;8.25;;;;;;;;5041230;28;45711;-51
2023/03/11 06:22:09;;;;;;;;;11.50;9.00;;;;;;;;5064717;28;45501;-51
2023/03/11 06:24:34;;;;;;;;;12.50;8.50;;;;;;;;5064282;28;45530;-52
2023/03/11 06:26:59;;;;;;;;;11.00;11.00;;;;;;;;5071693;27;45512;-49
2023/03/11 06:29:25;;;;;;;;;12.25;11.25;;;;;;;;5050117;28;45572;-48
2023/03/11 06:31:51;;;;;;;;;12.00;11.00;;;;;;;;5063368;27;45443;-48
2023/03/11 06:34:16;;;;;;;;;11.75;10.00;;;;;;;;5051826;28;46155;-50
2023/03/11 06:36:41;;;;;;;;;9.50;9.50;;;;;;;;5060026;28;45517;-49
2023/03/11 06:39:06;;;;;;;;;11.25;9.00;;;;;;;;5047782;27;45746;-49
2023/03/11 06:41:33;;;;;;;;;11.25;10.50;;;;;;;;5059026;28;45545;-49
2023/03/11 06:43:58;;;;;;;;;11.25;11.00;;;;;;;;5049670;27;45535;-52
2023/03/11 06:46:24;;;;;;;;;9.50;9.50;;;;;;;;5071138;27;45479;-49
2023/03/11 06:48:52;;;;;;;;;10.50;8.50;;;;;;;;5056324;27;45898;-49
2023/03/11 06:51:18;;;;;;;;;12.00;12.00;;;;;;;;5070594;27;45668;-50
2023/03/11 06:53:43;;;;;;;;;9.00;9.00;;;;;;;;5045216;28;46489;-49
2023/03/11 06:56:12;;;;;;;;;11.00;8.75;;;;;;;;5058869;28;45454;-49
2023/03/11 06:58:37;;;;;;;;;11.00;9.00;;;;;;;;5062515;27;45550;-49
2023/03/11 07:01:04;;;;;;;;;14.50;11.75;;;;;;;;5062951;27;45667;-50
2023/03/11 07:03:30;;;;;;;;;11.50;11.50;;;;;;;;5068157;27;46128;-51
2023/03/11 07:05:55;;;;;;;;;11.50;11.50;;;;;;;;5060364;28;45456;-52
2023/03/11 07:08:20;;;;;;;;;12.25;11.25;;;;;;;;5054896;27;45474;-49
2023/03/11 07:10:47;;;;;;;;;10.00;10.00;;;;;;;;5063523;27;45453;-50
2023/03/11 07:13:12;;;;;;;;;12.25;11.75;;;;;;;;5037911;27;48205;-50
2023/03/11 07:15:37;;;;;;;;;9.75;9.75;;;;;;;;5057034;28;45620;-51
2023/03/11 07:18:02;;;;;;;;;11.50;10.25;;;;;;;;5052849;28;45720;-53
2023/03/11 07:20:27;;;;;;;;;12.00;12.00;;;;;;;;5050334;28;45598;-52
2023/03/11 07:22:53;;;;;;;;;13.00;13.00;;;;;;;;5043489;28;48388;-48
2023/03/11 07:25:18;;;;;;;;;9.00;9.00;;;;;;;;5055481;27;45564;-53
2023/03/11 07:27:43;;;;;;;;;11.75;11.75;;;;;;;;5057487;28;45550;-49
2023/03/11 07:30:09;;;;;;;;;12.00;12.00;;;;;;;;5054087;28;46083;-52
2023/03/11 07:32:34;;;;;;;;;12.25;11.25;;;;;;;;5060258;27;46247;-48
2023/03/11 07:34:59;;;;;;;;;14.25;12.75;;;;;;;;5053795;28;45421;-50
2023/03/11 07:37:24;;;;;;;;;12.00;12.00;;;;;;;;5054647;28;45428;-50
2023/03/11 07:39:50;;;;;;;;;10.25;10.25;;;;;;;;5062177;27;45588;-50
2023/03/11 07:42:15;;;;;;;;;13.25;13.25;;;;;;;;5051453;28;45597;-50
2023/03/11 07:44:40;;;;;;;;;15.00;12.25;;;;;;;;5034029;28;45804;-52
2023/03/11 07:47:05;;;;;;;;;10.25;10.25;;;;;;;;5046634;28;45556;-49
2023/03/11 07:49:31;;;;;;;;;10.25;10.25;;;;;;;;5060923;28;45524;-50
2023/03/11 07:51:56;;;;;;;;;7.50;7.25;;;;;;;;5053860;28;45586;-51
2023/03/11 07:54:21;;;;;;;;;11.75;11.75;;;;;;;;5059193;28;45448;-53
2023/03/11 07:56:47;;;;;;;;;18.00;11.00;;;;;;;;5039064;28;45542;-53
2023/03/11 07:59:12;;;;;;;;;12.25;12.25;;;;;;;;5055431;28;45535;-49
2023/03/11 08:01:39;;;;;;;;;11.25;11.25;;;;;;;;5062696;27;45872;-46
2023/03/11 08:04:06;;;;;;;;;12.50;12.50;;;;;;;;5050974;27;45408;-52
2023/03/11 08:06:32;;;;;;;;;14.25;12.50;;;;;;;;5035610;28;46133;-52
2023/03/11 08:08:58;;;;;;;;;9.00;9.00;;;;;;;;5053282;28;45462;-51
2023/03/11 08:11:24;;;;;;;;;11.50;9.00;;;;;;;;5056627;28;46258;-49
2023/03/11 08:13:49;;;;;;;;;14.50;13.00;;;;;;;;5067435;28;45597;-48
2023/03/11 08:16:15;;;;;;;;;13.25;11.50;;;;;;;;5035749;28;46025;-52
2023/03/11 08:18:41;;;;;;;;;13.50;11.25;;;;;;;;5058916;28;45581;-48
2023/03/11 08:21:08;;;;;;;;;14.75;13.50;;;;;;;;5053055;28;45509;-49
2023/03/11 08:23:33;;;;;;;;;9.50;9.50;;;;;;;;5049277;28;46362;-55
2023/03/11 08:26:01;;;;;;;;;9.25;9.00;;;;;;;;5049049;28;45436;-48
2023/03/11 08:28:27;;;;;;;;;10.25;10.25;;;;;;;;5051822;27;45507;-51
2023/03/11 08:30:52;;;;;;;;;12.25;11.00;;;;;;;;5058449;27;45515;-50
2023/03/11 08:33:17;;;;;;;;;10.25;10.25;;;;;;;;5063191;27;45403;-47
2023/03/11 08:35:42;;;;;;;;;9.75;9.50;;;;;;;;5060581;27;45427;-49
2023/03/11 08:38:07;;;;;;;;;7.25;7.25;;;;;;;;5033436;28;45493;-51
2023/03/11 08:40:33;;;;;;;;;7.50;7.50;;;;;;;;5050825;28;46332;-52
2023/03/11 08:42:58;;;;;;;;;9.50;7.50;;;;;;;;5057860;28;45431;-52
2023/03/11 08:45:23;;;;;;;;;9.00;8.75;;;;;;;;5049527;28;45565;-47
2023/03/11 08:47:48;;;;;;;;;9.50;8.00;;;;;;;;5060681;27;45661;-55
2023/03/11 08:50:16;;;;;;;;;7.00;7.00;;;;;;;;5064640;27;45694;-52
2023/03/11 08:52:41;;;;;;;;;7.25;7.25;;;;;;;;5063912;27;45496;-49
2023/03/11 08:55:07;;;;;;;;;8.00;8.00;;;;;;;;5058244;28;45793;-48
2023/03/11 08:57:32;;;;;;;;;8.00;6.25;;;;;;;;5036418;28;45486;-50
2023/03/11 08:59:58;;;;;;;;;7.25;6.75;;;;;;;;5060574;27;45502;-49
2023/03/11 09:02:24;;;;;;;;;6.25;4.50;;;;;;;;5051917;28;45508;-52
2023/03/11 09:04:49;;;;;;;;;5.50;3.50;;;;;;;;5062100;27;45533;-51
2023/03/11 09:07:14;;;;;;;;;5.75;5.75;;;;;;;;5034815;28;45635;-51
2023/03/11 09:09:40;;;;;;;;;8.75;7.50;;;;;;;;5056514;27;46089;-49
2023/03/11 09:12:06;;;;;;;;;4.00;4.00;;;;;;;;5056265;28;45565;-50
2023/03/11 09:14:31;;;;;;;;;10.50;7.75;;;;;;;;5050991;28;45577;-49
2023/03/11 09:16:57;;;;;;;;;9.00;7.75;;;;;;;;5055220;28;45417;-50
2023/03/11 09:19:22;;;;;;;;;9.25;9.25;;;;;;;;5055551;28;45502;-51
2023/03/11 09:21:47;;;;;;;;;11.75;11.75;;;;;;;;5067279;27;45500;-51
2023/03/11 09:24:12;;;;;;;;;13.50;13.25;;;;;;;;5058357;27;45577;-51
2023/03/11 09:26:37;;;;;;;;;11.50;9.50;;;;;;;;5056885;27;45730;-54
2023/03/11 09:29:03;;;;;;;;;8.75;7.75;;;;;;;;5052094;28;45498;-50
2023/03/11 09:31:28;;;;;;;;;6.75;6.75;;;;;;;;5061156;28;45506;-49
2023/03/11 09:33:55;;;;;;;;;8.25;7.75;;;;;;;;5060703;27;45496;-53
2023/03/11 09:36:20;;;;;;;;;6.00;6.00;;;;;;;;5036372;28;45481;-54
2023/03/11 09:38:46;;;;;;;;;12.00;9.00;;;;;;;;5062285;28;45478;-50
2023/03/11 09:41:17;;;;;;;;;3.75;3.75;;;;;;;;5055495;28;45505;-51
2023/03/11 09:43:43;;;;;;;;;4.00;4.00;;;;;;;;5061763;28;45540;-53
2023/03/11 09:46:27;;;;;;;;;3.50;3.50;;;;;;;;5055933;28;45586;-50
2023/03/11 09:49:05;;;;;;;;;4.50;4.50;;;;;;;;5071782;27;45484;-50
2023/03/11 09:51:35;;;;;;;;;8.50;8.00;;;;;;;;5072517;28;45600;-53
2023/03/11 09:54:04;;;;;;;;;4.00;4.00;;;;;;;;5059041;28;45524;-52
2023/03/11 09:56:30;;;;;;;;;6.50;5.50;;;;;;;;5071347;27;45611;-51
2023/03/11 09:59:00;;;;;;;;;5.25;3.25;;;;;;;;5059432;27;45557;-52
2023/03/11 10:01:28;;;;;;;;;5.75;5.50;;;;;;;;5051855;28;45621;-48
2023/03/11 10:03:55;;;;;;;;;6.00;6.00;;;;;;;;5050044;28;45677;-52
2023/03/11 10:06:25;;;;;;;;;4.00;4.00;;;;;;;;5051814;27;45673;-52
2023/03/11 10:08:53;;;;;;;;;5.00;5.00;;;;;;;;5059711;28;46081;-54
2023/03/11 10:11:32;;;;;;;;;5.00;3.25;;;;;;;;5057572;27;45570;-54
2023/03/11 10:14:04;;;;;;;;;4.00;4.00;;;;;;;;5056966;28;45513;-56
2023/03/11 10:16:35;;;;;;;;;4.75;3.75;;;;;;;;5061024;28;45527;-54
2023/03/11 10:19:10;;;;;;;;;4.50;4.50;;;;;;;;5043840;28;46139;-54
2023/03/11 10:21:54;;;;;;;;;5.50;5.25;;;;;;;;5068738;27;45548;-65
2023/03/11 10:24:30;;;;;;;;;3.25;3.25;;;;;;;;5063763;27;45629;-60
2023/03/11 10:26:58;;;;;;;;;3.25;3.25;;;;;;;;5062731;27;45572;-59
2023/03/11 10:29:29;;;;;;;;;2.75;2.75;;;;;;;;5039007;28;48014;-59
2023/03/11 10:31:57;;;;;;;;;3.00;3.00;;;;;;;;5059981;27;45534;-61
2023/03/11 10:34:31;;;;;;;;;4.25;2.75;;;;;;;;5061102;28;45416;-60
2023/03/11 10:37:25;;;;;;;;;4.50;3.25;;;;;;;;5064584;28;45869;-61
2023/03/11 10:39:51;;;;;;;;;3.00;3.00;;;;;;;;5036638;27;47527;-61
2023/03/11 10:42:26;;;;;;;;;1.75;1.75;;;;;;;;5053712;27;45745;-61
2023/03/11 10:44:51;;;;;;;;;3.75;3.00;;;;;;;;5024498;28;45589;-60
2023/03/11 10:47:18;;;;;;;;;4.50;4.50;;;;;;;;5054559;28;45634;-65
2023/03/11 10:49:44;;;;;;;;;7.00;6.50;;;;;;;;5064917;27;46370;-61
2023/03/11 10:52:09;;;;;;;;;4.50;4.50;;;;;;;;5066668;28;45559;-60
2023/03/11 10:54:42;;;;;;;;;4.00;4.00;;;;;;;;5038341;27;45605;-60
2023/03/11 10:57:20;;;;;;;;;5.00;5.00;;;;;;;;5075903;27;45565;-60
2023/03/11 10:59:47;;;;;;;;;4.00;4.00;;;;;;;;5057852;27;45518;-60
2023/03/11 11:02:21;;;;;;;;;4.00;4.00;;;;;;;;5049649;27;45562;-60
2023/03/11 11:04:47;;;;;;;;;3.50;3.50;;;;;;;;5063457;27;45528;-60
2023/03/11 11:07:19;;;;;;;;;7.50;6.75;;;;;;;;5063338;28;45612;-59
2023/03/11 11:09:44;;;;;;;;;2.25;2.25;;;;;;;;5047193;27;45671;-60
2023/03/11 11:12:14;;;;;;;;;3.00;3.00;;;;;;;;5047222;28;45561;-60
2023/03/11 11:14:40;;;;;;;;;6.67;6.00;;;;;;;;5050364;28;45546;-60
2023/03/11 11:17:14;;;;;;;;;8.50;6.75;;;;;;;;5075613;27;45537;-60
2023/03/11 11:19:42;;;;;;;;;4.00;4.00;;;;;;;;5046225;28;46331;-60
2023/03/11 11:22:14;;;;;;;;;3.75;3.75;;;;;;;;5054567;28;45557;-60
2023/03/11 11:24:42;;;;;;;;;7.50;7.50;;;;;;;;5049781;28;45613;-60
2023/03/11 11:27:10;;;;;;;;;6.00;6.00;;;;;;;;5057997;27;45467;-60
2023/03/11 11:29:36;;;;;;;;;4.50;3.25;;;;;;;;5053415;28;46367;-62
2023/03/11 11:32:21;;;;;;;;;6.00;4.00;;;;;;;;5053995;28;45506;-62
2023/03/11 11:35:01;;;;;;;;;4.00;4.00;;;;;;;;5047618;27;46215;-62
2023/03/11 11:37:30;;;;;;;;;7.00;4.25;;;;;;;;5069967;27;45376;-62
2023/03/11 11:40:16;;;;;;;;;4.50;3.75;;;;;;;;5058068;27;45755;-60
2023/03/11 11:42:50;;;;;;;;;3.50;3.00;;;;;;;;5056062;28;45785;-60
2023/03/11 11:45:20;;;;;;;;;7.00;6.00;;;;;;;;5063152;27;45505;-60
2023/03/11 11:47:48;;;;;;;;;5.75;5.75;;;;;;;;5069784;27;45495;-59
2023/03/11 11:50:18;;;;;;;;;4.00;2.00;;;;;;;;5065769;27;45459;-60
2023/03/11 11:52:50;;;;;;;;;4.00;4.00;;;;;;;;5067046;27;45628;-63
2023/03/11 11:55:19;;;;;;;;;3.00;3.00;;;;;;;;5051305;28;45697;-63
2023/03/11 11:57:44;;;;;;;;;2.67;2.67;;;;;;;;5066410;27;45636;-63
2023/03/11 12:00:15;;;;;;;;;4.00;3.00;;;;;;;;5053429;28;45403;-63
2023/03/11 12:02:49;;;;;;;;;7.00;6.00;;;;;;;;5057145;27;45519;-59
2023/03/11 12:05:18;;;;;;;;;7.00;5.75;;;;;;;;5043116;28;45598;-62
2023/03/11 12:07:46;;;;;;;;;7.00;7.00;;;;;;;;5064767;27;45653;-63
2023/03/11 12:10:23;;;;;;;;;5.25;4.50;;;;;;;;5063746;27;45613;-58
2023/03/11 12:13:07;;;;;;;;;6.50;6.50;;;;;;;;5067604;27;45514;-64
2023/03/11 12:15:47;;;;;;;;;8.00;7.00;;;;;;;;5040047;28;45472;-61
2023/03/11 12:18:25;;;;;;;;;6.67;4.67;;;;;;;;5067444;27;45567;-62
2023/03/11 12:20:52;;;;;;;;;5.50;5.50;;;;;;;;5058117;27;46080;-62
2023/03/11 12:23:23;;;;;;;;;6.50;6.50;;;;;;;;5055290;27;46241;-59
2023/03/11 12:26:02;;;;;;;;;3.67;3.67;;;;;;;;5058245;27;45713;-61
2023/03/11 12:28:36;;;;;;;;;4.00;4.00;;;;;;;;5059466;28;45596;-59
2023/03/11 12:31:03;;;;;;;;;7.00;6.67;;;;;;;;5041618;28;48787;-61
2023/03/11 12:33:50;;;;;;;;;8.33;6.67;;;;;;;;5072303;27;45534;-62
2023/03/11 12:36:23;;;;;;;;;4.00;4.00;;;;;;;;5046596;28;45549;-62
2023/03/11 12:38:49;;;;;;;;;2.33;2.33;;;;;;;;5057774;28;45494;-61
2023/03/11 12:41:14;;;;;;;;;8.67;7.00;;;;;;;;5056600;28;45509;-57
2023/03/11 12:43:42;;;;;;;;;5.33;5.33;;;;;;;;5048972;28;45541;-61
2023/03/11 12:46:08;;;;;;;;;7.00;7.00;;;;;;;;5059282;27;45566;-61
2023/03/11 12:48:48;;;;;;;;;6.00;4.00;;;;;;;;5050673;28;45613;-62
2023/03/11 12:51:27;;;;;;;;;7.67;5.00;;;;;;;;5065412;27;45682;-62
2023/03/11 12:53:55;;;;;;;;;6.33;5.67;;;;;;;;5043294;28;45491;-60
2023/03/11 12:56:38;;;;;;;;;8.00;8.00;;;;;;;;5061671;28;45551;-58
2023/03/11 12:59:03;;;;;;;;;5.67;3.67;;;;;;;;5051193;28;45521;-59
2023/03/11 13:02:01;;;;;;;;;9.00;6.75;;;;;;;;5065283;27;45580;-62
2023/03/11 13:04:35;;;;;;;;;6.00;6.00;;;;;;;;5027797;28;45473;-60
2023/03/11 13:07:03;;;;;;;;;6.00;6.00;;;;;;;;5054596;28;45540;-61
2023/03/11 13:09:28;;;;;;;;;3.33;3.33;;;;;;;;5046071;28;45513;-60
2023/03/11 13:11:55;;;;;;;;;3.00;3.00;;;;;;;;5057896;28;46057;-61
2023/03/11 13:14:40;;;;;;;;;7.00;7.00;;;;;;;;5050940;28;45491;-59
2023/03/11 13:17:25;;;;;;;;;6.67;6.67;;;;;;;;5050755;28;45638;-59
2023/03/11 13:19:54;;;;;;;;;4.00;4.00;;;;;;;;5055312;28;45603;-61
2023/03/11 13:22:41;;;;;;;;;4.00;4.00;;;;;;;;5043881;27;47265;-61
2023/03/11 13:25:24;;;;;;;;;5.67;5.67;;;;;;;;5061687;28;45503;-59
2023/03/11 13:27:50;;;;;;;;;3.67;3.67;;;;;;;;5066774;28;45630;-60
2023/03/11 13:30:33;;;;;;;;;4.00;3.00;;;;;;;;5064892;27;45443;-61
2023/03/11 13:32:58;;;;;;;;;5.00;5.00;;;;;;;;5056434;28;46223;-61
2023/03/11 13:35:24;;;;;;;;;8.33;5.33;;;;;;;;5060053;28;45514;-59
2023/03/11 13:38:08;;;;;;;;;15.25;13.75;;;;;;;;5050816;28;45468;-58
2023/03/11 13:40:42;;;;;;;;;6.00;4.00;;;;;;;;5041185;28;45670;-60
2023/03/11 13:43:13;;;;;;;;;4.67;4.67;;;;;;;;5049713;28;46206;-59
2023/03/11 13:45:39;;;;;;;;;4.00;4.00;;;;;;;;5056846;28;45455;-60
2023/03/11 13:48:07;;;;;;;;;7.67;5.33;;;;;;;;5030620;28;45571;-59
2023/03/11 13:50:38;;;;;;;;;6.33;6.33;;;;;;;;5068415;27;45463;-62
2023/03/11 13:53:16;;;;;;;;;5.00;5.00;;;;;;;;5059136;27;45517;-60
2023/03/11 13:55:45;;;;;;;;;5.33;4.33;;;;;;;;5052096;28;45632;-61
2023/03/11 13:58:29;;;;;;;;;4.67;4.67;;;;;;;;5031672;28;45658;-61
2023/03/11 14:00:55;;;;;;;;;5.67;5.67;;;;;;;;5057710;28;45428;-59
2023/03/11 14:03:24;;;;;;;;;5.67;5.67;;;;;;;;5059637;28;45599;-60
2023/03/11 14:06:09;;;;;;;;;4.00;4.00;;;;;;;;5066568;27;45542;-62
2023/03/11 14:08:35;;;;;;;;;8.33;7.33;;;;;;;;5027316;28;45586;-62
2023/03/11 14:11:02;;;;;;;;;8.67;7.00;;;;;;;;5069917;27;45443;-63
2023/03/11 14:13:29;;;;;;;;;7.33;6.33;;;;;;;;5057702;28;46157;-59
2023/03/11 14:15:58;;;;;;;;;6.00;5.33;;;;;;;;5063605;27;45465;-59
2023/03/11 14:18:25;;;;;;;;;3.67;3.67;;;;;;;;5044177;28;45562;-61
2023/03/11 14:20:51;;;;;;;;;5.67;5.67;;;;;;;;5060796;27;45591;-61
2023/03/11 14:23:17;;;;;;;;;6.00;6.00;;;;;;;;5057144;28;45464;-60
2023/03/11 14:25:43;;;;;;;;;7.67;5.33;;;;;;;;5060470;27;45604;-62
2023/03/11 14:28:17;;;;;;;;;10.33;6.33;;;;;;;;5039074;28;45575;-61
2023/03/11 14:30:53;;;;;;;;;7.00;7.00;;;;;;;;5055619;28;45624;-61
2023/03/11 14:33:20;;;;;;;;;8.67;7.00;;;;;;;;5060838;27;46423;-60
2023/03/11 14:35:53;;;;;;;;;5.67;5.67;;;;;;;;5069131;27;45539;-59
2023/03/11 14:38:19;;;;;;;;;8.00;7.00;;;;;;;;5073307;27;45391;-62
2023/03/11 14:40:49;;;;;;;;;5.67;5.67;;;;;;;;5052360;28;45639;-62